createdAt,value
2022-10-13T00:01:54.636Z,183.58
2022-10-13T00:07:26.209Z,182.78
2022-10-13T00:12:57.780Z,184.79
2022-10-13T00:18:29.588Z,182.78
2022-10-13T00:24:01.114Z,184.80
2022-10-13T00:29:33.225Z,185.42
2022-10-13T00:35:05.082Z,185.73
2022-10-13T00:40:37.246Z,188.61
2022-10-13T00:46:08.950Z,191.14
2022-10-13T00:51:40.789Z,194.42
2022-10-13T00:57:12.213Z,198.06
2022-10-13T01:02:44.427Z,198.30
2022-10-13T01:08:23.911Z,198.06
2022-10-13T01:13:55.738Z,196.87
2022-10-13T01:19:27.814Z,196.75
2022-10-13T01:24:59.852Z,200.97
2022-10-13T01:30:31.254Z,204.22
2022-10-13T01:36:03.371Z,204.73
2022-10-13T01:41:35.217Z,201.84
2022-10-13T01:47:07.326Z,200.48
2022-10-13T01:52:39.344Z,199.51
2022-10-13T01:58:11.622Z,198.06
2022-10-13T02:03:43.852Z,197.23
2022-10-13T02:09:16.004Z,195.58
2022-10-13T02:14:47.808Z,194.54
2022-10-13T02:20:19.356Z,193.62
2022-10-13T02:25:51.376Z,191.81
2022-10-13T02:31:23.241Z,191.92
2022-10-13T02:36:55.231Z,193.85
2022-10-13T02:42:27.063Z,192.03
2022-10-13T02:47:58.879Z,193.28
2022-10-13T02:53:30.621Z,193.16
2022-10-13T02:59:02.360Z,192.93
2022-10-13T03:04:34.420Z,192.26
2022-10-13T03:10:06.093Z,191.70
2022-10-13T03:15:37.763Z,190.47
2022-10-13T03:21:09.777Z,191.81
2022-10-13T03:26:41.672Z,191.25
2022-10-13T03:32:13.604Z,191.58
2022-10-13T03:37:45.648Z,191.70
2022-10-13T03:43:17.516Z,192.26
2022-10-13T03:48:49.420Z,190.36
2022-10-13T03:54:21.232Z,190.03
2022-10-13T03:59:53.235Z,189.37
2022-10-13T04:05:25.167Z,189.04
2022-10-13T04:10:57.233Z,187.85
2022-10-13T04:16:29.433Z,187.10
2022-10-13T04:22:01.830Z,186.57
2022-10-13T04:27:34.039Z,187.75
2022-10-13T04:33:05.922Z,187.00
2022-10-13T04:38:38.164Z,185.42
2022-10-13T04:44:10.497Z,185.73
2022-10-13T04:49:42.765Z,184.19
2022-10-13T04:55:14.593Z,184.79
2022-10-13T05:00:46.820Z,185.42
2022-10-13T05:06:19.025Z,184.19
2022-10-13T05:11:51.356Z,183.99
2022-10-13T05:17:23.351Z,183.38
2022-10-13T05:22:55.499Z,180.99
2022-10-13T05:28:27.791Z,179.43
2022-10-13T05:33:59.968Z,178.10
2022-10-13T05:39:32.150Z,176.40
2022-10-13T05:45:04.589Z,176.21
2022-10-13T05:56:06.737Z,174.19
2022-10-13T06:01:38.996Z,172.39
2022-10-13T06:07:11.393Z,171.68
2022-10-13T06:12:43.678Z,170.98
2022-10-13T06:18:15.851Z,169.76
2022-10-13T06:23:47.851Z,168.56
2022-10-13T06:29:19.568Z,168.39
2022-10-13T06:34:51.733Z,167.21
2022-10-13T06:40:23.920Z,166.04
2022-10-13T06:45:55.559Z,165.39
2022-10-13T06:51:27.604Z,163.76
2022-10-13T06:56:59.968Z,161.54
2022-10-13T07:02:32.070Z,161.86
2022-10-13T07:08:04.448Z,159.38
2022-10-13T07:13:37.346Z,158.93
2022-10-13T07:19:08.654Z,156.10
2022-10-13T07:24:40.593Z,156.69
2022-10-13T07:30:12.729Z,155.52
2022-10-13T07:35:45.101Z,155.52
2022-10-13T07:41:17.186Z,154.37
2022-10-13T07:46:48.916Z,155.23
2022-10-13T07:52:21.155Z,154.51
2022-10-13T07:57:53.004Z,152.12
2022-10-13T08:03:24.817Z,151.57
2022-10-13T08:08:56.674Z,150.47
2022-10-13T08:11:08.674Z,155.38
2022-10-13T08:16:40.368Z,153.94
2022-10-13T08:22:12.213Z,151.02
2022-10-13T08:27:51.169Z,149.13
2022-10-13T08:33:15.524Z,149.53
2022-10-13T08:38:47.477Z,150.20
2022-10-13T08:49:50.977Z,151.71
2022-10-13T08:55:23.028Z,152.26
2022-10-13T09:00:54.801Z,154.37
2022-10-13T09:11:55.676Z,161.08
2022-10-13T09:17:27.223Z,161.39
2022-10-13T09:22:58.920Z,162.65
2022-10-13T09:28:30.835Z,163.12
2022-10-13T09:34:02.520Z,165.06
2022-10-13T09:39:34.459Z,165.22
2022-10-13T09:45:06.187Z,165.06
2022-10-13T09:50:37.966Z,165.55
2022-10-13T09:58:29.716Z,166.71
2022-10-13T10:04:01.141Z,165.39
2022-10-13T10:09:32.764Z,162.33
2022-10-13T10:15:03.946Z,157.28
2022-10-13T10:20:35.500Z,154.94
2022-10-13T10:26:07.299Z,153.80
2022-10-13T10:31:39.124Z,150.34
2022-10-13T10:37:10.948Z,147.29
2022-10-13T10:42:42.875Z,145.74
2022-10-13T10:48:14.516Z,142.02
2022-10-13T10:53:46.534Z,141.78
2022-10-13T10:59:18.076Z,140.23
2022-10-13T11:04:49.846Z,139.53
2022-10-13T11:10:21.774Z,139.18
2022-10-13T11:15:53.639Z,137.35
2022-10-13T11:21:25.249Z,135.89
2022-10-13T11:26:57.172Z,135.45
2022-10-13T11:32:31.197Z,131.60
2022-10-13T11:38:13.958Z,131.60
2022-10-13T11:43:34.629Z,131.40
2022-10-13T11:49:06.181Z,130.27
2022-10-13T11:54:37.702Z,129.66
2022-10-13T12:05:39.125Z,126.71
2022-10-13T12:11:10.842Z,127.19
2022-10-13T12:16:42.651Z,126.13
2022-10-13T12:22:14.390Z,126.71
2022-10-13T12:27:46.275Z,124.91
2022-10-13T12:33:18.075Z,124.07
2022-10-13T12:38:49.659Z,123.25
2022-10-13T12:44:21.602Z,123.43
2022-10-13T12:49:53.221Z,123.52
2022-10-13T12:55:25.171Z,122.70
2022-10-13T13:00:57.107Z,121.36
2022-10-13T13:06:28.908Z,121.90
2022-10-13T13:12:00.471Z,121.45
2022-10-13T13:17:53.310Z,120.05
2022-10-13T13:23:03.823Z,119.11
2022-10-13T13:28:35.123Z,118.77
2022-10-13T13:34:06.901Z,118.86
2022-10-13T13:45:07.760Z,118.69
2022-10-13T13:50:39.532Z,118.60
2022-10-13T13:56:11.266Z,118.18
2022-10-13T14:01:43.193Z,119.03
2022-10-13T14:07:14.950Z,119.28
2022-10-13T14:12:46.677Z,118.10
2022-10-13T14:18:18.455Z,119.54
2022-10-13T14:23:50.103Z,119.03
2022-10-13T14:29:22.491Z,119.62
2022-10-13T14:34:54.313Z,118.18
2022-10-13T14:40:27.536Z,119.11
2022-10-13T14:45:59.412Z,119.62
2022-10-13T14:51:31.202Z,118.02
2022-10-13T14:57:02.838Z,118.77
2022-10-13T15:02:34.366Z,118.02
2022-10-13T15:13:35.591Z,119.37
2022-10-13T15:24:37.023Z,119.45
2022-10-13T15:30:08.566Z,120.05
2022-10-13T15:35:40.411Z,119.88
2022-10-13T15:41:11.981Z,119.88
2022-10-13T15:47:05.617Z,121.01
2022-10-13T15:52:15.784Z,120.40
2022-10-13T15:57:47.612Z,121.36
2022-10-13T16:03:19.346Z,121.54
2022-10-13T16:08:51.302Z,122.88
2022-10-13T16:14:23.124Z,123.43
2022-10-13T16:19:54.718Z,123.98
2022-10-13T16:25:26.563Z,124.25
2022-10-13T16:36:27.930Z,124.07
2022-10-13T16:41:59.886Z,124.72
2022-10-13T16:47:31.641Z,124.63
2022-10-13T16:53:03.400Z,125.19
2022-10-13T16:58:35.221Z,125.00
2022-10-13T17:04:07.024Z,123.52
2022-10-13T17:09:38.830Z,125.19
2022-10-13T17:15:10.414Z,126.23
2022-10-13T17:20:42.283Z,127.00
2022-10-13T17:26:13.943Z,128.17
2022-10-13T17:31:45.930Z,130.68
2022-10-13T17:37:17.844Z,130.07
2022-10-13T17:42:49.303Z,131.71
2022-10-13T17:48:23.169Z,131.19
2022-10-13T17:53:52.997Z,132.02
2022-10-13T17:59:24.913Z,131.60
2022-10-13T18:04:56.633Z,133.61
2022-10-13T18:10:33.883Z,133.18
2022-10-13T18:16:00.789Z,133.82
2022-10-13T18:21:32.911Z,133.39
2022-10-13T18:27:04.864Z,135.01
2022-10-13T18:32:36.470Z,135.45
2022-10-13T18:38:08.350Z,136.56
2022-10-13T18:54:43.452Z,139.41
2022-10-13T19:00:15.231Z,140.23
2022-10-13T19:05:47.301Z,139.41
2022-10-13T19:11:18.983Z,140.00
2022-10-13T19:16:50.719Z,138.72
2022-10-13T19:22:22.882Z,138.60
2022-10-13T19:27:54.703Z,138.14
2022-10-13T19:33:26.171Z,139.53
2022-10-13T19:38:58.359Z,139.64
2022-10-13T19:44:30.231Z,138.49
2022-10-13T19:55:31.809Z,136.22
2022-10-13T20:01:03.841Z,135.12
2022-10-13T20:12:05.276Z,133.93
2022-10-13T20:17:36.994Z,135.67
2022-10-13T20:34:10.459Z,137.12
2022-10-13T20:39:44.478Z,136.45
2022-10-13T20:45:16.525Z,136.78
2022-10-13T20:50:48.459Z,135.34
2022-10-13T21:18:28.865Z,135.34
2022-10-13T21:24:01.105Z,136.34
2022-10-13T21:35:04.780Z,137.91
2022-10-13T21:40:37.067Z,139.29
2022-10-13T21:51:41.041Z,139.29
2022-10-13T21:57:13.267Z,135.89
2022-10-13T22:02:44.999Z,133.71
2022-10-13T22:08:16.808Z,131.81
2022-10-13T22:19:21.203Z,129.86
2022-10-13T22:24:53.000Z,128.96
2022-10-13T22:30:24.682Z,127.58
2022-10-13T22:35:58.485Z,128.07
2022-10-13T22:41:30.438Z,129.06
2022-10-13T22:52:32.303Z,129.26
2022-10-13T22:58:04.431Z,129.26
2022-10-13T23:09:06.356Z,131.50
2022-10-13T23:11:17.214Z,130.37
2022-10-13T23:16:48.562Z,133.18
2022-10-13T23:22:20.454Z,133.82
2022-10-13T23:27:52.318Z,133.07
2022-10-13T23:33:24.263Z,134.47
2022-10-13T23:38:55.989Z,134.36
2022-10-13T23:46:48.213Z,134.04
2022-10-13T23:52:20.157Z,137.46
2022-10-13T23:57:51.966Z,138.14
